»·PEaware :: N712TF KAPA-KBOI

N712TF :: KAPA-KBOI

FLIGHT INFORMATION

Flight Status: Arrived
Operator: Privately registered:
United States
More flights under this callsign
Pilot: Tyler J. (19619)
Aircraft: BOEING 717-200
(B712)
More flights by this aircraft type
Origin: KAPA Centennial
United States
Destination: KBOI Boise Air Terminal/Gowen
United States
More flights between these airports :: More routes between these airports
Route: WNGSS1 CHNGY MLD MEVLE SPUUD3
File this flight plan on PilotEdge
Remarks:
Altitude:
(Current/Filed)
34,000ft
Speed:
(Current/Filed)
450kts
Departed: 06-May-20 11:53 AM
Arrived: 06-May-20 01:32 PM
Distance/Time
Traveled:
564nm/1:39
Distance/Time
To Go:
Arrived

Flight Plot

Page will automatically refresh every two minutes.


Map Options




Map Legend


Flown Route
Filed Route
Departure Airport
Arrival Airport
Navaid (VOR, NDB)
Fix

Horizontal Profiles

Position Reports

Time Latitude Longitude Heading Altitude Ground
Speed
06-May-20 11:11 39.577933 -104.848614 152 5891ft 0kts
06-May-20 11:12 39.577933 -104.848614 152 5891ft 0kts
06-May-20 11:13 39.577933 -104.848614 152 5891ft 0kts
06-May-20 11:14 39.577933 -104.848614 152 5891ft 0kts
06-May-20 11:15 39.577933 -104.848614 152 5891ft 0kts
06-May-20 11:16 39.577933 -104.848614 152 5891ft 0kts
06-May-20 11:17 39.577933 -104.848614 152 5891ft 0kts
06-May-20 11:18 39.577933 -104.848614 152 5891ft 0kts
06-May-20 11:19 39.577933 -104.848614 152 5891ft 0kts
06-May-20 11:20 39.577933 -104.848614 152 5891ft 0kts
06-May-20 11:21 39.577933 -104.848614 152 5891ft 0kts
06-May-20 11:22 39.577933 -104.848614 152 5891ft 0kts
06-May-20 11:23 39.577933 -104.848614 152 5891ft 0kts
06-May-20 11:24 39.577933 -104.848614 152 5891ft 0kts
06-May-20 11:24 39.577933 -104.848613 152 5891ft 0kts
06-May-20 11:26 39.577932 -104.848613 152 5891ft 0kts
06-May-20 11:27 39.577673 -104.848667 214 5891ft 6kts
06-May-20 11:27 39.577580 -104.848849 252 5891ft 0kts
06-May-20 11:28 39.577516 -104.848986 224 5891ft 0kts
06-May-20 11:30 39.577482 -104.849029 224 5891ft 0kts
06-May-20 11:30 39.578129 -104.850079 357 5891ft 11kts
06-May-20 11:31 39.582775 -104.850281 357 5891ft 13kts
06-May-20 11:32 39.584047 -104.850621 282 5891ft 0kts
06-May-20 11:33 39.583912 -104.851456 182 5891ft 2kts
06-May-20 11:41 39.577933 -104.848614 152 5891ft 0kts
06-May-20 11:42 39.577933 -104.848614 152 5891ft 0kts
06-May-20 11:43 39.577933 -104.848614 152 5891ft 0kts
06-May-20 11:44 39.577933 -104.848614 152 5891ft 0kts
06-May-20 11:45 39.577933 -104.848614 152 5891ft 0kts
06-May-20 11:46 39.577933 -104.848614 152 5891ft 0kts
06-May-20 11:47 39.577933 -104.848614 152 5891ft 0kts
06-May-20 11:48 39.577604 -104.848857 223 5891ft 0kts
06-May-20 11:49 39.580008 -104.850134 358 5891ft 14kts
06-May-20 11:50 39.583988 -104.850412 340 5891ft 6kts
06-May-20 11:51 39.584056 -104.850593 267 5891ft 0kts
06-May-20 11:52 39.580225 -104.851302 178 5891ft 78kts
06-May-20 11:53 39.533778 -104.848049 176 7232ft 209kts
06-May-20 11:54 39.496639 -104.891293 278 8564ft 234kts
06-May-20 11:55 39.546438 -104.940961 338 9014ft 238kts
06-May-20 11:56 39.608436 -104.970549 338 9014ft 236kts
06-May-20 11:57 39.671715 -105.000543 338 10877ft 262kts
06-May-20 11:58 39.745174 -105.034953 331 11664ft 286kts
06-May-20 11:59 39.779378 -105.126290 276 12741ft 334kts
06-May-20 12:00 39.800170 -105.257015 296 14015ft 388kts
06-May-20 12:01 39.853533 -105.380252 298 16470ft 393kts
06-May-20 12:02 39.907343 -105.505399 298 18559ft 399kts
06-May-20 12:03 39.961036 -105.633125 293 20392ft 403kts
06-May-20 12:04 39.979471 -105.777501 274 21992ft 408kts
06-May-20 12:05 39.986756 -105.925660 275 23426ft 412kts
06-May-20 12:06 39.994018 -106.075562 275 24648ft 416kts
06-May-20 12:07 40.001121 -106.226290 275 26010ft 414kts
06-May-20 12:08 40.007940 -106.375051 274 27635ft 406kts
06-May-20 12:09 40.031992 -106.515374 294 29293ft 398kts
06-May-20 12:10 40.082592 -106.642545 295 30945ft 391kts
06-May-20 12:11 40.132741 -106.767559 294 32513ft 386kts
06-May-20 12:12 40.182167 -106.891279 294 34033ft 381kts
06-May-20 12:13 40.231068 -107.014186 294 34338ft 378kts
06-May-20 12:14 40.279411 -107.136207 293 34342ft 378kts
06-May-20 12:15 40.327662 -107.258483 293 34351ft 378kts
06-May-20 12:16 40.375976 -107.381425 293 34331ft 378kts
06-May-20 12:17 40.424088 -107.504356 293 34275ft 378kts
06-May-20 12:18 40.472082 -107.627498 293 34248ft 379kts
06-May-20 12:19 40.519917 -107.750742 293 34252ft 379kts
06-May-20 12:20 40.567724 -107.874428 293 34249ft 379kts
06-May-20 12:21 40.615297 -107.998019 292 34242ft 378kts
06-May-20 12:22 40.662756 -108.121845 292 34239ft 379kts
06-May-20 12:23 40.710204 -108.246154 292 34238ft 378kts
06-May-20 12:24 40.757249 -108.369943 292 34237ft 379kts
06-May-20 12:25 40.804275 -108.494199 292 34236ft 378kts
06-May-20 12:26 40.851219 -108.618773 291 34234ft 378kts
06-May-20 12:27 40.897863 -108.743075 291 34233ft 378kts
06-May-20 12:28 40.944564 -108.868067 291 34228ft 379kts
06-May-20 12:29 40.990899 -108.992609 291 34223ft 377kts
06-May-20 12:30 41.037233 -109.117694 291 34225ft 378kts
06-May-20 12:31 41.083385 -109.242822 291 34226ft 378kts
06-May-20 12:32 41.129490 -109.368373 290 34227ft 378kts
06-May-20 12:33 41.175221 -109.493431 290 34227ft 376kts
06-May-20 12:34 41.220991 -109.619164 290 34231ft 376kts
06-May-20 12:35 41.266296 -109.744164 290 34232ft 376kts
06-May-20 12:36 41.311510 -109.869456 289 34238ft 376kts
06-May-20 12:37 41.356603 -109.994968 289 34241ft 375kts
06-May-20 12:38 41.401403 -110.120214 289 34244ft 376kts
06-May-20 12:39 41.446207 -110.246015 289 34248ft 374kts
06-May-20 12:40 41.490754 -110.371668 289 34250ft 374kts
06-May-20 12:41 41.535052 -110.497168 289 34250ft 374kts
06-May-20 12:42 41.579471 -110.623572 289 34248ft 375kts
06-May-20 12:43 41.623605 -110.749733 289 34248ft 375kts
06-May-20 12:44 41.667648 -110.876204 289 34244ft 375kts
06-May-20 12:45 41.711638 -111.003097 288 34241ft 376kts
06-May-20 12:46 41.755553 -111.130345 288 34228ft 376kts
06-May-20 12:47 41.799191 -111.257361 288 34218ft 374kts
06-May-20 12:48 41.842746 -111.384741 288 34198ft 375kts
06-May-20 12:49 41.886216 -111.512438 288 34182ft 374kts
06-May-20 12:50 41.929326 -111.639686 287 34175ft 376kts
06-May-20 12:51 41.972482 -111.767631 287 34171ft 374kts
06-May-20 12:52 42.015301 -111.895189 287 34172ft 375kts
06-May-20 12:53 42.057935 -112.022780 287 34170ft 374kts
06-May-20 12:54 42.100620 -112.151111 287 34170ft 374kts
06-May-20 12:55 42.143030 -112.279249 287 34167ft 375kts
06-May-20 12:56 42.185452 -112.407971 287 34165ft 375kts
06-May-20 12:57 42.229017 -112.536524 288 34163ft 378kts
06-May-20 12:58 42.273170 -112.665259 288 34193ft 379kts
06-May-20 12:59 42.317306 -112.794551 288 34183ft 380kts
06-May-20 13:00 42.361544 -112.924734 288 34202ft 381kts
06-May-20 13:01 42.405779 -113.055519 287 34199ft 382kts
06-May-20 13:03 42.449796 -113.186306 287 34214ft 383kts
06-May-20 13:04 42.493751 -113.317521 287 34241ft 384kts
06-May-20 13:05 42.537809 -113.449684 287 34260ft 384kts
06-May-20 13:06 42.581581 -113.581625 287 34263ft 384kts
06-May-20 13:07 42.625267 -113.713956 287 34265ft 384kts
06-May-20 13:08 42.668914 -113.846816 287 34267ft 384kts
06-May-20 13:09 42.712333 -113.979640 287 34273ft 384kts
06-May-20 13:10 42.755695 -114.112941 287 34273ft 385kts
06-May-20 13:11 42.798876 -114.246374 287 33991ft 389kts
06-May-20 13:12 42.842076 -114.380492 287 31841ft 388kts
06-May-20 13:13 42.885833 -114.517062 287 29722ft 397kts
06-May-20 13:14 42.930828 -114.656839 289 27556ft 405kts
06-May-20 13:15 42.978625 -114.797932 289 24783ft 407kts
06-May-20 13:16 43.025343 -114.936138 289 22020ft 395kts
06-May-20 13:17 43.070770 -115.070975 289 19327ft 388kts
06-May-20 13:17 43.107992 -115.181471 290 16668ft 375kts
06-May-20 13:19 43.157406 -115.329003 290 13774ft 365kts
06-May-20 13:20 43.199039 -115.453728 290 11665ft 349kts
06-May-20 13:20 43.227035 -115.537954 290 11355ft 277kts
06-May-20 13:21 43.258664 -115.633402 291 10555ft 273kts
06-May-20 13:22 43.302511 -115.715379 313 9512ft 264kts
06-May-20 13:24 43.362752 -115.792899 315 8378ft 249kts
06-May-20 13:24 43.405807 -115.845047 314 8001ft 247kts
06-May-20 13:25 43.453584 -115.912951 301 7553ft 243kts
06-May-20 13:26 43.487538 -115.998793 295 6205ft 244kts
06-May-20 13:27 43.509313 -116.064915 294 5161ft 157kts
06-May-20 13:28 43.527533 -116.118006 294 4359ft 148kts
06-May-20 13:29 43.544727 -116.168271 295 3592ft 140kts
06-May-20 13:30 43.561206 -116.216741 296 2880ft 119kts
06-May-20 13:31 43.566372 -116.233448 264 2879ft 7kts
06-May-20 13:32 43.566075 -116.240546 264 2879ft 17kts
06-May-20 13:33 43.564194 -116.240387 155 2879ft 14kts
06-May-20 13:34 43.564008 -116.239852 351 2879ft 0kts
06-May-20 13:35 43.564008 -116.239852 351 2879ft 0kts
06-May-20 13:36 43.564008 -116.239852 351 2879ft 0kts
06-May-20 13:37 43.564008 -116.239852 351 2879ft 0kts
06-May-20 13:38 43.564008 -116.239852 351 2879ft 0kts
06-May-20 13:39 43.564008 -116.239852 351 2879ft 0kts
06-May-20 13:40 43.564008 -116.239852 351 2879ft 0kts
06-May-20 13:41 43.564008 -116.239852 351 2879ft 0kts
06-May-20 13:42 43.564008 -116.239852 351 2879ft 0kts

Navigation Log

Ident Type
Flight plan parsing failed, navigation log unavailable